Terminal Aerodrome Forecast
Issued by NWS

Home | Current Version | Previous Version | Text Only | Print | Product List | Glossary On
Versions: 1 2 3 4 5 6 7 8 9 10 11 12
911
FTUS44 KEPZ 201725
TAFLRU
TAF
KLRU 201725Z 2018/2118 21011KT P6SM FEW250
     FM202100 23015G25KT P6SM SCT250
     FM210500 24016G26KT P6SM VCSH SCT040 BKN060
     FM211000 27020G30KT P6SM FEW060
     FM211600 27025G38KT P6SM FEW060=

USA.gov is the U.S. government's official web portal to all federal, state and local government web resources and services.